Terminal Aerodrome Forecast
Issued by NWS

Home | Current Version | Previous Version | Text Only | Print | Product List | Glossary Off
Versions: 1 2 3 4 5 6 7 8 9 10 11 12 13 14

000
FTUS43 KOAX 190520
TAFCDR
TAF
KCDR 190520Z 1906/2006 18011KT P6SM BKN150
     FM191500 24008KT P6SM BKN100
     FM192100 20008KT P6SM VCSH BKN070=

USA.gov is the U.S. government's official web portal to all federal, state and local government web resources and services.